sensor_id;sensor_type;location;lat;lon;timestamp;temperature;humidity
47757;SHT35;22147;52.388;13.390;2023-09-30T00:01:31;17.43;77.76
47757;SHT35;22147;52.388;13.390;2023-09-30T00:03:59;17.42;77.32
47757;SHT35;22147;52.388;13.390;2023-09-30T00:06:30;17.43;77.54
47757;SHT35;22147;52.388;13.390;2023-09-30T00:08:59;17.48;76.65
47757;SHT35;22147;52.388;13.390;2023-09-30T00:11:27;17.43;76.35
47757;SHT35;22147;52.388;13.390;2023-09-30T00:13:56;17.39;75.58
47757;SHT35;22147;52.388;13.390;2023-09-30T00:16:24;17.28;75.18
47757;SHT35;22147;52.388;13.390;2023-09-30T00:18:51;17.15;75.57
47757;SHT35;22147;52.388;13.390;2023-09-30T00:21:24;17.08;75.42
47757;SHT35;22147;52.388;13.390;2023-09-30T00:23:53;16.88;75.72
47757;SHT35;22147;52.388;13.390;2023-09-30T00:26:24;16.83;75.35
47757;SHT35;22147;52.388;13.390;2023-09-30T00:28:54;16.77;75.42
47757;SHT35;22147;52.388;13.390;2023-09-30T00:31:24;16.66;74.93
47757;SHT35;22147;52.388;13.390;2023-09-30T00:33:54;16.51;75.04
47757;SHT35;22147;52.388;13.390;2023-09-30T00:36:25;16.40;75.20
47757;SHT35;22147;52.388;13.390;2023-09-30T00:38:55;16.33;75.81
47757;SHT35;22147;52.388;13.390;2023-09-30T00:41:25;16.32;75.26
47757;SHT35;22147;52.388;13.390;2023-09-30T00:43:55;16.23;75.53
47757;SHT35;22147;52.388;13.390;2023-09-30T00:46:33;16.16;75.47
47757;SHT35;22147;52.388;13.390;2023-09-30T00:49:03;16.06;75.43
47757;SHT35;22147;52.388;13.390;2023-09-30T00:51:33;16.00;75.63
47757;SHT35;22147;52.388;13.390;2023-09-30T00:54:04;15.98;75.75
47757;SHT35;22147;52.388;13.390;2023-09-30T00:56:46;15.84;76.30
47757;SHT35;22147;52.388;13.390;2023-09-30T00:59:15;15.81;76.32
47757;SHT35;22147;52.388;13.390;2023-09-30T01:01:46;15.75;76.60
47757;SHT35;22147;52.388;13.390;2023-09-30T01:04:18;15.79;76.12
47757;SHT35;22147;52.388;13.390;2023-09-30T01:06:48;15.68;76.45
47757;SHT35;22147;52.388;13.390;2023-09-30T01:09:19;15.64;76.65
47757;SHT35;22147;52.388;13.390;2023-09-30T01:11:49;15.57;76.41
47757;SHT35;22147;52.388;13.390;2023-09-30T01:14:33;15.53;76.48
47757;SHT35;22147;52.388;13.390;2023-09-30T01:17:10;15.43;76.78
47757;SHT35;22147;52.388;13.390;2023-09-30T01:19:42;15.39;76.76
47757;SHT35;22147;52.388;13.390;2023-09-30T01:22:14;15.34;76.84
47757;SHT35;22147;52.388;13.390;2023-09-30T01:24:44;15.26;77.14
47757;SHT35;22147;52.388;13.390;2023-09-30T01:27:17;15.23;77.22
47757;SHT35;22147;52.388;13.390;2023-09-30T01:29:48;15.20;77.26
47757;SHT35;22147;52.388;13.390;2023-09-30T01:32:19;15.15;77.48
47757;SHT35;22147;52.388;13.390;2023-09-30T01:34:49;15.12;77.66
47757;SHT35;22147;52.388;13.390;2023-09-30T01:37:19;15.09;77.70
47757;SHT35;22147;52.388;13.390;2023-09-30T01:39:49;14.98;78.12
47757;SHT35;22147;52.388;13.390;2023-09-30T01:42:20;14.95;78.25
47757;SHT35;22147;52.388;13.390;2023-09-30T01:44:50;14.88;78.58
47757;SHT35;22147;52.388;13.390;2023-09-30T01:47:20;14.81;78.75
47757;SHT35;22147;52.388;13.390;2023-09-30T01:49:50;14.72;79.06
47757;SHT35;22147;52.388;13.390;2023-09-30T01:52:20;14.64;79.33
47757;SHT35;22147;52.388;13.390;2023-09-30T01:54:50;14.61;79.67
47757;SHT35;22147;52.388;13.390;2023-09-30T01:57:20;14.57;79.78
47757;SHT35;22147;52.388;13.390;2023-09-30T01:59:50;14.51;80.04
47757;SHT35;22147;52.388;13.390;2023-09-30T02:02:20;14.55;80.19
47757;SHT35;22147;52.388;13.390;2023-09-30T02:04:50;14.44;80.48
47757;SHT35;22147;52.388;13.390;2023-09-30T02:07:20;14.40;80.80
47757;SHT35;22147;52.388;13.390;2023-09-30T02:09:50;14.41;80.93
47757;SHT35;22147;52.388;13.390;2023-09-30T02:12:20;14.28;81.31
47757;SHT35;22147;52.388;13.390;2023-09-30T02:14:50;14.23;81.66
47757;SHT35;22147;52.388;13.390;2023-09-30T02:17:20;14.23;81.94
47757;SHT35;22147;52.388;13.390;2023-09-30T02:19:50;14.20;82.16
47757;SHT35;22147;52.388;13.390;2023-09-30T02:22:20;14.13;82.32
47757;SHT35;22147;52.388;13.390;2023-09-30T02:24:50;14.03;82.66
47757;SHT35;22147;52.388;13.390;2023-09-30T02:27:20;14.02;82.81
47757;SHT35;22147;52.388;13.390;2023-09-30T02:29:50;13.89;83.13
47757;SHT35;22147;52.388;13.390;2023-09-30T02:32:19;13.81;83.38
47757;SHT35;22147;52.388;13.390;2023-09-30T02:34:47;13.70;83.71
47757;SHT35;22147;52.388;13.390;2023-09-30T02:37:16;13.69;83.90
47757;SHT35;22147;52.388;13.390;2023-09-30T02:39:47;13.62;84.08
47757;SHT35;22147;52.388;13.390;2023-09-30T02:42:15;13.59;84.33
47757;SHT35;22147;52.388;13.390;2023-09-30T02:44:44;13.49;84.47
47757;SHT35;22147;52.388;13.390;2023-09-30T02:47:12;13.52;84.85
47757;SHT35;22147;52.388;13.390;2023-09-30T02:49:41;13.55;85.06
47757;SHT35;22147;52.388;13.390;2023-09-30T02:52:09;13.52;85.18
47757;SHT35;22147;52.388;13.390;2023-09-30T02:54:38;13.47;85.32
47757;SHT35;22147;52.388;13.390;2023-09-30T02:57:06;13.41;85.53
47757;SHT35;22147;52.388;13.390;2023-09-30T02:59:38;13.41;85.78
47757;SHT35;22147;52.388;13.390;2023-09-30T03:02:08;13.40;85.93
47757;SHT35;22147;52.388;13.390;2023-09-30T03:04:38;13.48;86.14
47757;SHT35;22147;52.388;13.390;2023-09-30T03:07:07;13.45;86.30
47757;SHT35;22147;52.388;13.390;2023-09-30T03:09:38;13.42;86.46
47757;SHT35;22147;52.388;13.390;2023-09-30T03:12:10;13.35;86.59
47757;SHT35;22147;52.388;13.390;2023-09-30T03:14:39;13.35;86.87
47757;SHT35;22147;52.388;13.390;2023-09-30T03:17:10;13.28;86.98
47757;SHT35;22147;52.388;13.390;2023-09-30T03:19:41;13.27;87.20
47757;SHT35;22147;52.388;13.390;2023-09-30T03:22:12;13.27;87.38
47757;SHT35;22147;52.388;13.390;2023-09-30T03:24:42;13.20;87.36
47757;SHT35;22147;52.388;13.390;2023-09-30T03:27:12;13.17;87.45
47757;SHT35;22147;52.388;13.390;2023-09-30T03:29:42;13.10;87.54
47757;SHT35;22147;52.388;13.390;2023-09-30T03:32:12;13.08;87.65
47757;SHT35;22147;52.388;13.390;2023-09-30T03:34:42;13.06;87.71
47757;SHT35;22147;52.388;13.390;2023-09-30T03:37:15;13.01;87.62
47757;SHT35;22147;52.388;13.390;2023-09-30T03:39:45;12.97;87.74
47757;SHT35;22147;52.388;13.390;2023-09-30T03:42:19;12.99;87.73
47757;SHT35;22147;52.388;13.390;2023-09-30T03:44:50;12.96;87.37
47757;SHT35;22147;52.388;13.390;2023-09-30T03:47:20;12.84;87.41
47757;SHT35;22147;52.388;13.390;2023-09-30T03:49:50;12.83;87.56
47757;SHT35;22147;52.388;13.390;2023-09-30T03:52:20;12.87;87.55
47757;SHT35;22147;52.388;13.390;2023-09-30T03:54:52;12.83;87.47
47757;SHT35;22147;52.388;13.390;2023-09-30T03:57:23;12.82;87.73
47757;SHT35;22147;52.388;13.390;2023-09-30T03:59:54;12.79;87.79
47757;SHT35;22147;52.388;13.390;2023-09-30T04:02:23;12.76;87.77
47757;SHT35;22147;52.388;13.390;2023-09-30T04:04:53;12.76;88.00
47757;SHT35;22147;52.388;13.390;2023-09-30T04:07:26;12.72;88.00
47757;SHT35;22147;52.388;13.390;2023-09-30T04:09:57;12.71;88.10
47757;SHT35;22147;52.388;13.390;2023-09-30T04:12:27;12.72;88.20
47757;SHT35;22147;52.388;13.390;2023-09-30T04:15:00;12.66;88.19
47757;SHT35;22147;52.388;13.390;2023-09-30T04:17:29;12.63;88.24
47757;SHT35;22147;52.388;13.390;2023-09-30T04:19:59;12.56;88.46
47757;SHT35;22147;52.388;13.390;2023-09-30T04:22:29;12.58;88.64
47757;SHT35;22147;52.388;13.390;2023-09-30T04:25:01;12.53;88.44
47757;SHT35;22147;52.388;13.390;2023-09-30T04:27:31;12.49;88.62
47757;SHT35;22147;52.388;13.390;2023-09-30T04:30:01;12.45;88.68
47757;SHT35;22147;52.388;13.390;2023-09-30T04:32:39;12.39;88.80
47757;SHT35;22147;52.388;13.390;2023-09-30T04:35:10;12.35;88.80
47757;SHT35;22147;52.388;13.390;2023-09-30T04:37:41;12.32;88.89
47757;SHT35;22147;52.388;13.390;2023-09-30T04:40:12;12.21;89.06
47757;SHT35;22147;52.388;13.390;2023-09-30T04:42:50;12.24;89.38
47757;SHT35;22147;52.388;13.390;2023-09-30T04:45:20;12.18;89.29
47757;SHT35;22147;52.388;13.390;2023-09-30T04:47:52;12.13;89.43
47757;SHT35;22147;52.388;13.390;2023-09-30T04:50:22;12.03;89.34
47757;SHT35;22147;52.388;13.390;2023-09-30T04:52:53;12.00;89.46
47757;SHT35;22147;52.388;13.390;2023-09-30T04:55:24;11.97;89.37
47757;SHT35;22147;52.388;13.390;2023-09-30T04:57:54;11.97;89.38
47757;SHT35;22147;52.388;13.390;2023-09-30T05:00:24;11.94;89.24
47757;SHT35;22147;52.388;13.390;2023-09-30T05:02:56;11.98;89.02
47757;SHT35;22147;52.388;13.390;2023-09-30T05:05:27;11.94;88.87
47757;SHT35;22147;52.388;13.390;2023-09-30T05:07:58;11.94;88.83
47757;SHT35;22147;52.388;13.390;2023-09-30T05:10:28;11.90;88.70
47757;SHT35;22147;52.388;13.390;2023-09-30T05:12:59;11.90;88.65
47757;SHT35;22147;52.388;13.390;2023-09-30T05:15:29;11.87;88.47
47757;SHT35;22147;52.388;13.390;2023-09-30T05:18:00;11.90;88.34
47757;SHT35;22147;52.388;13.390;2023-09-30T05:20:29;11.89;88.12
47757;SHT35;22147;52.388;13.390;2023-09-30T05:22:57;11.87;88.07
47757;SHT35;22147;52.388;13.390;2023-09-30T05:25:26;11.84;88.05
47757;SHT35;22147;52.388;13.390;2023-09-30T05:27:57;11.87;87.97
47757;SHT35;22147;52.388;13.390;2023-09-30T05:30:25;11.83;87.85
47757;SHT35;22147;52.388;13.390;2023-09-30T05:32:54;11.84;87.89
47757;SHT35;22147;52.388;13.390;2023-09-30T05:35:22;11.84;87.97
47757;SHT35;22147;52.388;13.390;2023-09-30T05:37:51;11.89;87.98
47757;SHT35;22147;52.388;13.390;2023-09-30T05:40:23;11.95;87.87
47757;SHT35;22147;52.388;13.390;2023-09-30T05:42:58;12.04;87.80
47757;SHT35;22147;52.388;13.390;2023-09-30T05:45:33;12.11;87.58
47757;SHT35;22147;52.388;13.390;2023-09-30T05:48:04;12.17;87.52
47757;SHT35;22147;52.388;13.390;2023-09-30T05:50:38;12.24;87.45
47757;SHT35;22147;52.388;13.390;2023-09-30T05:53:08;12.35;87.39
47757;SHT35;22147;52.388;13.390;2023-09-30T05:55:41;12.45;87.25
47757;SHT35;22147;52.388;13.390;2023-09-30T05:58:15;12.55;87.38
47757;SHT35;22147;52.388;13.390;2023-09-30T06:00:48;12.58;87.50
47757;SHT35;22147;52.388;13.390;2023-09-30T06:03:21;12.63;87.66
47757;SHT35;22147;52.388;13.390;2023-09-30T06:05:54;12.79;87.77
47757;SHT35;22147;52.388;13.390;2023-09-30T06:08:26;12.89;87.71
47757;SHT35;22147;52.388;13.390;2023-09-30T06:10:57;13.00;87.89
47757;SHT35;22147;52.388;13.390;2023-09-30T06:13:28;13.10;87.97
47757;SHT35;22147;52.388;13.390;2023-09-30T06:16:01;13.23;87.86
47757;SHT35;22147;52.388;13.390;2023-09-30T06:18:35;13.35;87.93
47757;SHT35;22147;52.388;13.390;2023-09-30T06:21:05;13.49;87.79
47757;SHT35;22147;52.388;13.390;2023-09-30T06:23:36;13.57;87.58
47757;SHT35;22147;52.388;13.390;2023-09-30T06:26:06;13.59;87.31
47757;SHT35;22147;52.388;13.390;2023-09-30T06:28:37;13.59;86.95
47757;SHT35;22147;52.388;13.390;2023-09-30T06:31:11;13.68;86.91
47757;SHT35;22147;52.388;13.390;2023-09-30T06:33:39;13.68;86.90
47757;SHT35;22147;52.388;13.390;2023-09-30T06:36:13;13.70;86.75
47757;SHT35;22147;52.388;13.390;2023-09-30T06:38:46;13.76;86.39
47757;SHT35;22147;52.388;13.390;2023-09-30T06:41:19;13.79;86.56
47757;SHT35;22147;52.388;13.390;2023-09-30T06:43:49;13.86;86.28
47757;SHT35;22147;52.388;13.390;2023-09-30T06:46:21;13.83;86.17
47757;SHT35;22147;52.388;13.390;2023-09-30T06:48:54;13.89;85.85
47757;SHT35;22147;52.388;13.390;2023-09-30T06:51:24;13.95;85.68
47757;SHT35;22147;52.388;13.390;2023-09-30T06:53:56;13.99;85.56
47757;SHT35;22147;52.388;13.390;2023-09-30T06:56:27;14.06;85.49
47757;SHT35;22147;52.388;13.390;2023-09-30T06:58:58;14.13;85.11
47757;SHT35;22147;52.388;13.390;2023-09-30T07:01:29;14.23;84.97
47757;SHT35;22147;52.388;13.390;2023-09-30T07:03:59;14.34;84.48
47757;SHT35;22147;52.388;13.390;2023-09-30T07:06:30;14.37;84.58
47757;SHT35;22147;52.388;13.390;2023-09-30T07:09:00;14.47;84.67
47757;SHT35;22147;52.388;13.390;2023-09-30T07:11:31;14.67;84.56
47757;SHT35;22147;52.388;13.390;2023-09-30T07:14:04;14.72;84.14
47757;SHT35;22147;52.388;13.390;2023-09-30T07:16:34;14.91;84.02
47757;SHT35;22147;52.388;13.390;2023-09-30T07:19:03;14.95;82.69
47757;SHT35;22147;52.388;13.390;2023-09-30T07:21:31;14.95;82.81
47757;SHT35;22147;52.388;13.390;2023-09-30T07:24:00;15.09;82.32
47757;SHT35;22147;52.388;13.390;2023-09-30T07:26:28;15.18;81.98
47757;SHT35;22147;52.388;13.390;2023-09-30T07:28:56;15.16;81.83
47757;SHT35;22147;52.388;13.390;2023-09-30T07:31:28;15.22;81.74
47757;SHT35;22147;52.388;13.390;2023-09-30T07:33:56;15.30;80.72
47757;SHT35;22147;52.388;13.390;2023-09-30T07:36:25;15.27;80.65
47757;SHT35;22147;52.388;13.390;2023-09-30T07:38:53;15.23;80.28
47757;SHT35;22147;52.388;13.390;2023-09-30T07:41:21;15.19;80.74
47757;SHT35;22147;52.388;13.390;2023-09-30T07:43:50;15.27;80.49
47757;SHT35;22147;52.388;13.390;2023-09-30T07:46:18;15.34;80.29
47757;SHT35;22147;52.388;13.390;2023-09-30T07:48:47;15.44;80.29
47757;SHT35;22147;52.388;13.390;2023-09-30T07:51:15;15.67;79.67
47757;SHT35;22147;52.388;13.390;2023-09-30T07:53:43;15.81;79.23
47757;SHT35;22147;52.388;13.390;2023-09-30T07:56:13;15.82;78.32
47757;SHT35;22147;52.388;13.390;2023-09-30T07:58:43;15.73;77.87
47757;SHT35;22147;52.388;13.390;2023-09-30T08:01:12;15.57;78.75
47757;SHT35;22147;52.388;13.390;2023-09-30T08:03:41;15.49;79.13
47757;SHT35;22147;52.388;13.390;2023-09-30T08:06:09;15.39;79.17
47757;SHT35;22147;52.388;13.390;2023-09-30T08:08:39;15.34;79.53
47757;SHT35;22147;52.388;13.390;2023-09-30T08:11:09;15.39;79.11
47757;SHT35;22147;52.388;13.390;2023-09-30T08:13:39;15.34;79.09
47757;SHT35;22147;52.388;13.390;2023-09-30T08:16:09;15.39;79.27
47757;SHT35;22147;52.388;13.390;2023-09-30T08:18:39;15.44;78.92
47757;SHT35;22147;52.388;13.390;2023-09-30T08:21:10;15.54;78.94
47757;SHT35;22147;52.388;13.390;2023-09-30T08:23:43;15.77;78.91
47757;SHT35;22147;52.388;13.390;2023-09-30T08:26:11;15.95;77.74
47757;SHT35;22147;52.388;13.390;2023-09-30T08:28:42;16.13;77.02
47757;SHT35;22147;52.388;13.390;2023-09-30T08:31:11;16.34;76.93
47757;SHT35;22147;52.388;13.390;2023-09-30T08:33:41;16.55;76.37
47757;SHT35;22147;52.388;13.390;2023-09-30T08:36:14;16.71;75.33
47757;SHT35;22147;52.388;13.390;2023-09-30T08:38:44;16.69;74.87
47757;SHT35;22147;52.388;13.390;2023-09-30T08:41:33;16.71;75.20
47757;SHT35;22147;52.388;13.390;2023-09-30T08:44:04;16.71;74.82
47757;SHT35;22147;52.388;13.390;2023-09-30T08:46:34;16.71;74.17
47757;SHT35;22147;52.388;13.390;2023-09-30T08:49:05;16.80;74.99
47757;SHT35;22147;52.388;13.390;2023-09-30T08:51:38;16.95;73.78
47757;SHT35;22147;52.388;13.390;2023-09-30T08:54:07;16.94;73.13
47757;SHT35;22147;52.388;13.390;2023-09-30T08:56:44;16.90;73.90
47757;SHT35;22147;52.388;13.390;2023-09-30T08:59:17;16.97;74.81
47757;SHT35;22147;52.388;13.390;2023-09-30T09:01:47;16.95;73.85
47757;SHT35;22147;52.388;13.390;2023-09-30T09:04:18;16.94;73.75
47757;SHT35;22147;52.388;13.390;2023-09-30T09:06:48;17.02;73.71
47757;SHT35;22147;52.388;13.390;2023-09-30T09:09:19;17.24;74.15
47757;SHT35;22147;52.388;13.390;2023-09-30T09:11:51;17.43;72.81
47757;SHT35;22147;52.388;13.390;2023-09-30T09:14:39;17.53;71.36
47757;SHT35;22147;52.388;13.390;2023-09-30T09:17:11;17.73;71.27
47757;SHT35;22147;52.388;13.390;2023-09-30T09:19:40;17.93;71.64
47757;SHT35;22147;52.388;13.390;2023-09-30T09:22:07;18.20;70.62
47757;SHT35;22147;52.388;13.390;2023-09-30T09:24:38;18.36;69.87
47757;SHT35;22147;52.388;13.390;2023-09-30T09:27:14;18.57;69.34
47757;SHT35;22147;52.388;13.390;2023-09-30T09:29:45;18.72;68.34
47757;SHT35;22147;52.388;13.390;2023-09-30T09:32:17;18.80;67.39
47757;SHT35;22147;52.388;13.390;2023-09-30T09:35:01;18.89;67.89
47757;SHT35;22147;52.388;13.390;2023-09-30T09:37:32;19.00;66.98
47757;SHT35;22147;52.388;13.390;2023-09-30T09:40:01;18.94;67.55
47757;SHT35;22147;52.388;13.390;2023-09-30T09:42:33;19.02;67.17
47757;SHT35;22147;52.388;13.390;2023-09-30T09:45:07;19.13;66.72
47757;SHT35;22147;52.388;13.390;2023-09-30T09:47:37;19.27;65.52
47757;SHT35;22147;52.388;13.390;2023-09-30T09:50:10;19.37;65.19
47757;SHT35;22147;52.388;13.390;2023-09-30T09:52:42;19.24;64.52
47757;SHT35;22147;52.388;13.390;2023-09-30T09:55:19;19.08;65.90
47757;SHT35;22147;52.388;13.390;2023-09-30T09:57:52;19.21;66.00
47757;SHT35;22147;52.388;13.390;2023-09-30T10:00:26;19.40;64.62
47757;SHT35;22147;52.388;13.390;2023-09-30T10:02:56;19.51;64.28
47757;SHT35;22147;52.388;13.390;2023-09-30T10:05:28;19.55;63.43
47757;SHT35;22147;52.388;13.390;2023-09-30T10:08:11;19.48;64.05
47757;SHT35;22147;52.388;13.390;2023-09-30T10:10:45;19.27;63.65
47757;SHT35;22147;52.388;13.390;2023-09-30T10:13:53;19.11;65.50
47757;SHT35;22147;52.388;13.390;2023-09-30T10:19:12;18.80;64.76
47757;SHT35;22147;52.388;13.390;2023-09-30T10:24:53;18.80;63.81
47757;SHT35;22147;52.388;13.390;2023-09-30T10:40:58;18.75;63.29
47757;SHT35;22147;52.388;13.390;2023-09-30T10:43:33;18.55;62.93
47757;SHT35;22147;52.388;13.390;2023-09-30T10:48:56;18.49;63.33
47757;SHT35;22147;52.388;13.390;2023-09-30T10:51:43;18.72;62.78
47757;SHT35;22147;52.388;13.390;2023-09-30T10:54:32;18.63;63.64
47757;SHT35;22147;52.388;13.390;2023-09-30T10:57:03;18.61;62.59
47757;SHT35;22147;52.388;13.390;2023-09-30T10:59:33;18.44;62.52
47757;SHT35;22147;52.388;13.390;2023-09-30T11:02:19;18.36;62.37
47757;SHT35;22147;52.388;13.390;2023-09-30T11:04:53;18.44;62.33
47757;SHT35;22147;52.388;13.390;2023-09-30T11:07:29;18.49;62.10
47757;SHT35;22147;52.388;13.390;2023-09-30T11:10:02;18.83;59.94
47757;SHT35;22147;52.388;13.390;2023-09-30T11:12:32;19.11;58.36
47757;SHT35;22147;52.388;13.390;2023-09-30T11:15:04;19.37;57.69
47757;SHT35;22147;52.388;13.390;2023-09-30T11:17:35;19.59;57.35
47757;SHT35;22147;52.388;13.390;2023-09-30T11:20:09;19.69;58.06
47757;SHT35;22147;52.388;13.390;2023-09-30T11:22:41;19.93;57.42
47757;SHT35;22147;52.388;13.390;2023-09-30T11:25:18;20.13;56.74
47757;SHT35;22147;52.388;13.390;2023-09-30T11:27:49;20.13;57.40
47757;SHT35;22147;52.388;13.390;2023-09-30T11:30:17;20.14;56.94
47757;SHT35;22147;52.388;13.390;2023-09-30T11:32:46;20.24;56.70
47757;SHT35;22147;52.388;13.390;2023-09-30T11:35:23;20.21;55.73
47757;SHT35;22147;52.388;13.390;2023-09-30T11:37:54;19.96;55.49
47757;SHT35;22147;52.388;13.390;2023-09-30T11:40:24;19.86;56.48
47757;SHT35;22147;52.388;13.390;2023-09-30T11:43:09;19.98;56.17
47757;SHT35;22147;52.388;13.390;2023-09-30T11:45:42;20.08;55.22
47757;SHT35;22147;52.388;13.390;2023-09-30T11:48:20;20.20;55.59
47757;SHT35;22147;52.388;13.390;2023-09-30T11:50:49;20.27;55.18
47757;SHT35;22147;52.388;13.390;2023-09-30T11:53:20;20.29;56.67
47757;SHT35;22147;52.388;13.390;2023-09-30T11:55:51;20.14;56.32
47757;SHT35;22147;52.388;13.390;2023-09-30T11:58:22;20.14;56.29
47757;SHT35;22147;52.388;13.390;2023-09-30T12:00:58;20.19;56.63
47757;SHT35;22147;52.388;13.390;2023-09-30T12:03:29;20.21;55.88
47757;SHT35;22147;52.388;13.390;2023-09-30T12:06:00;20.12;56.23
47757;SHT35;22147;52.388;13.390;2023-09-30T12:08:30;20.16;55.32
47757;SHT35;22147;52.388;13.390;2023-09-30T12:11:00;20.19;55.09
47757;SHT35;22147;52.388;13.390;2023-09-30T12:13:31;20.20;54.95
47757;SHT35;22147;52.388;13.390;2023-09-30T12:16:01;20.21;54.68
47757;SHT35;22147;52.388;13.390;2023-09-30T12:18:33;20.14;56.05
47757;SHT35;22147;52.388;13.390;2023-09-30T12:21:04;19.92;56.46
47757;SHT35;22147;52.388;13.390;2023-09-30T12:23:37;19.69;55.37
47757;SHT35;22147;52.388;13.390;2023-09-30T12:26:08;19.52;56.57
47757;SHT35;22147;52.388;13.390;2023-09-30T12:28:44;19.45;57.06
47757;SHT35;22147;52.388;13.390;2023-09-30T12:31:15;19.50;56.75
47757;SHT35;22147;52.388;13.390;2023-09-30T12:33:45;19.61;55.64
47757;SHT35;22147;52.388;13.390;2023-09-30T12:36:21;19.76;55.20
47757;SHT35;22147;52.388;13.390;2023-09-30T12:38:50;19.89;55.38
47757;SHT35;22147;52.388;13.390;2023-09-30T12:41:20;19.90;56.18
47757;SHT35;22147;52.388;13.390;2023-09-30T12:43:50;20.00;55.02
47757;SHT35;22147;52.388;13.390;2023-09-30T12:46:20;20.16;55.71
47757;SHT35;22147;52.388;13.390;2023-09-30T12:48:50;20.21;54.50
47757;SHT35;22147;52.388;13.390;2023-09-30T12:51:20;20.27;54.89
47757;SHT35;22147;52.388;13.390;2023-09-30T12:53:50;20.45;54.08
47757;SHT35;22147;52.388;13.390;2023-09-30T12:56:21;20.52;54.22
47757;SHT35;22147;52.388;13.390;2023-09-30T12:58:50;20.51;54.36
47757;SHT35;22147;52.388;13.390;2023-09-30T13:01:19;20.43;54.31
47757;SHT35;22147;52.388;13.390;2023-09-30T13:03:50;20.30;54.88
47757;SHT35;22147;52.388;13.390;2023-09-30T13:06:20;20.14;53.34
47757;SHT35;22147;52.388;13.390;2023-09-30T13:08:50;19.94;54.96
47757;SHT35;22147;52.388;13.390;2023-09-30T13:11:20;19.81;54.59
47757;SHT35;22147;52.388;13.390;2023-09-30T13:13:50;19.69;55.48
47757;SHT35;22147;52.388;13.390;2023-09-30T13:16:20;19.75;55.15
47757;SHT35;22147;52.388;13.390;2023-09-30T13:18:50;19.82;56.06
47757;SHT35;22147;52.388;13.390;2023-09-30T13:21:21;19.96;54.27
47757;SHT35;22147;52.388;13.390;2023-09-30T13:23:51;20.03;53.98
47757;SHT35;22147;52.388;13.390;2023-09-30T13:26:21;20.17;53.15
47757;SHT35;22147;52.388;13.390;2023-09-30T13:28:51;20.33;52.85
47757;SHT35;22147;52.388;13.390;2023-09-30T13:31:21;20.41;52.60
47757;SHT35;22147;52.388;13.390;2023-09-30T13:33:51;20.55;53.15
47757;SHT35;22147;52.388;13.390;2023-09-30T13:36:20;20.75;50.93
47757;SHT35;22147;52.388;13.390;2023-09-30T13:38:50;20.91;51.41
47757;SHT35;22147;52.388;13.390;2023-09-30T13:41:19;20.96;51.53
47757;SHT35;22147;52.388;13.390;2023-09-30T13:43:47;20.96;52.25
47757;SHT35;22147;52.388;13.390;2023-09-30T13:46:16;20.72;51.55
47757;SHT35;22147;52.388;13.390;2023-09-30T13:48:44;20.43;52.02
47757;SHT35;22147;52.388;13.390;2023-09-30T13:51:12;20.31;51.42
47757;SHT35;22147;52.388;13.390;2023-09-30T13:53:41;20.26;51.63
47757;SHT35;22147;52.388;13.390;2023-09-30T13:56:12;20.17;52.45
47757;SHT35;22147;52.388;13.390;2023-09-30T13:58:41;20.03;52.44
47757;SHT35;22147;52.388;13.390;2023-09-30T14:01:09;19.86;52.63
47757;SHT35;22147;52.388;13.390;2023-09-30T14:03:41;19.76;53.37
47757;SHT35;22147;52.388;13.390;2023-09-30T14:06:11;19.66;53.49
47757;SHT35;22147;52.388;13.390;2023-09-30T14:08:41;19.58;54.51
47757;SHT35;22147;52.388;13.390;2023-09-30T14:11:13;19.68;53.82
47757;SHT35;22147;52.388;13.390;2023-09-30T14:13:42;19.92;53.38
47757;SHT35;22147;52.388;13.390;2023-09-30T14:16:12;20.10;51.70
47757;SHT35;22147;52.388;13.390;2023-09-30T14:18:42;20.21;51.60
47757;SHT35;22147;52.388;13.390;2023-09-30T14:21:12;20.37;51.67
47757;SHT35;22147;52.388;13.390;2023-09-30T14:23:43;20.33;51.86
47757;SHT35;22147;52.388;13.390;2023-09-30T14:26:13;20.13;50.99
47757;SHT35;22147;52.388;13.390;2023-09-30T14:28:42;19.89;51.90
47757;SHT35;22147;52.388;13.390;2023-09-30T14:31:12;19.71;52.66
47757;SHT35;22147;52.388;13.390;2023-09-30T14:33:43;19.65;52.15
47757;SHT35;22147;52.388;13.390;2023-09-30T14:36:13;19.59;52.62
47757;SHT35;22147;52.388;13.390;2023-09-30T14:38:43;19.59;53.37
47757;SHT35;22147;52.388;13.390;2023-09-30T14:41:18;19.66;52.80
47757;SHT35;22147;52.388;13.390;2023-09-30T14:43:48;19.66;52.52
47757;SHT35;22147;52.388;13.390;2023-09-30T14:46:19;19.62;52.76
47757;SHT35;22147;52.388;13.390;2023-09-30T14:48:49;19.63;53.00
47757;SHT35;22147;52.388;13.390;2023-09-30T14:51:23;19.68;52.34
47757;SHT35;22147;52.388;13.390;2023-09-30T14:53:52;19.62;52.53
47757;SHT35;22147;52.388;13.390;2023-09-30T14:56:22;19.51;53.41
47757;SHT35;22147;52.388;13.390;2023-09-30T14:58:51;19.48;54.05
47757;SHT35;22147;52.388;13.390;2023-09-30T15:01:19;19.40;53.72
47757;SHT35;22147;52.388;13.390;2023-09-30T15:03:48;19.34;53.47
47757;SHT35;22147;52.388;13.390;2023-09-30T15:06:16;19.31;53.89
47757;SHT35;22147;52.388;13.390;2023-09-30T15:08:44;19.25;54.22
47757;SHT35;22147;52.388;13.390;2023-09-30T15:11:15;19.18;54.15
47757;SHT35;22147;52.388;13.390;2023-09-30T15:13:44;19.15;54.83
47757;SHT35;22147;52.388;13.390;2023-09-30T15:16:21;19.17;55.29
47757;SHT35;22147;52.388;13.390;2023-09-30T15:18:50;19.18;54.15
47757;SHT35;22147;52.388;13.390;2023-09-30T15:21:20;19.10;54.48
47757;SHT35;22147;52.388;13.390;2023-09-30T15:23:50;19.02;55.24
47757;SHT35;22147;52.388;13.390;2023-09-30T15:26:20;18.96;55.55
47757;SHT35;22147;52.388;13.390;2023-09-30T15:28:50;18.86;56.10
47757;SHT35;22147;52.388;13.390;2023-09-30T15:31:20;18.82;56.00
47757;SHT35;22147;52.388;13.390;2023-09-30T15:33:51;18.73;56.90
47757;SHT35;22147;52.388;13.390;2023-09-30T15:36:21;18.63;58.37
47757;SHT35;22147;52.388;13.390;2023-09-30T15:38:52;18.53;57.39
47757;SHT35;22147;52.388;13.390;2023-09-30T15:41:25;18.41;57.73
47757;SHT35;22147;52.388;13.390;2023-09-30T15:43:53;18.39;58.81
47757;SHT35;22147;52.388;13.390;2023-09-30T15:46:29;18.28;58.81
47757;SHT35;22147;52.388;13.390;2023-09-30T15:48:59;18.17;59.10
47757;SHT35;22147;52.388;13.390;2023-09-30T15:51:29;18.07;59.44
47757;SHT35;22147;52.388;13.390;2023-09-30T15:53:59;18.04;59.34
47757;SHT35;22147;52.388;13.390;2023-09-30T15:56:29;18.00;59.55
47757;SHT35;22147;52.388;13.390;2023-09-30T15:59:14;17.91;60.77
47757;SHT35;22147;52.388;13.390;2023-09-30T16:01:45;17.87;60.50